sensor_id;sensor_type;location;lat;lon;timestamp;pressure;altitude;pressure_sealevel;temperature;humidity
48800;BME280;34611;47.964;7.982;2023-03-13T00:00:12;96450.75;;;9.56;56.45
48800;BME280;34611;47.964;7.982;2023-03-13T00:07:14;96443.94;;;9.55;56.40
48800;BME280;34611;47.964;7.982;2023-03-13T00:14:15;96429.06;;;9.57;56.42
48800;BME280;34611;47.964;7.982;2023-03-13T00:21:17;96420.44;;;9.57;56.38
48800;BME280;34611;47.964;7.982;2023-03-13T00:28:17;96416.06;;;9.57;56.59
48800;BME280;34611;47.964;7.982;2023-03-13T00:35:18;96403.09;;;9.57;56.50
48800;BME280;34611;47.964;7.982;2023-03-13T00:42:18;96397.91;;;9.57;56.27
48800;BME280;34611;47.964;7.982;2023-03-13T00:49:18;96395.31;;;9.57;56.47
48800;BME280;34611;47.964;7.982;2023-03-13T00:56:19;96383.97;;;9.58;56.46
48800;BME280;34611;47.964;7.982;2023-03-13T01:03:20;96388.34;;;9.58;56.38
48800;BME280;34611;47.964;7.982;2023-03-13T01:10:24;96396.13;;;9.58;56.58
48800;BME280;34611;47.964;7.982;2023-03-13T01:17:24;96384.94;;;9.57;56.36
48800;BME280;34611;47.964;7.982;2023-03-13T01:24:24;96394.34;;;9.58;56.54
48800;BME280;34611;47.964;7.982;2023-03-13T01:31:26;96380.44;;;9.59;56.50
48800;BME280;34611;47.964;7.982;2023-03-13T01:38:29;96377.03;;;9.59;56.35
48800;BME280;34611;47.964;7.982;2023-03-13T01:45:50;96361.47;;;9.59;56.54
48800;BME280;34611;47.964;7.982;2023-03-13T01:52:52;96347.63;;;9.58;56.34
48800;BME280;34611;47.964;7.982;2023-03-13T02:00:03;96325.13;;;9.59;56.64
48800;BME280;34611;47.964;7.982;2023-03-13T02:07:14;96312.97;;;9.59;56.56
48800;BME280;34611;47.964;7.982;2023-03-13T02:14:16;96289.63;;;9.59;56.56
48800;BME280;34611;47.964;7.982;2023-03-13T02:28:31;96276.63;;;9.59;56.35
48800;BME280;34611;47.964;7.982;2023-03-13T02:35:33;96270.47;;;9.60;56.52
48800;BME280;34611;47.964;7.982;2023-03-13T02:42:40;96258.47;;;9.59;56.58
48800;BME280;34611;47.964;7.982;2023-03-13T02:49:41;96243.72;;;9.60;56.57
48800;BME280;34611;47.964;7.982;2023-03-13T02:56:42;96246.31;;;9.60;56.61
48800;BME280;34611;47.964;7.982;2023-03-13T03:03:44;96244.53;;;9.60;56.45
48800;BME280;34611;47.964;7.982;2023-03-13T03:10:44;96241.13;;;9.60;56.59
48800;BME280;34611;47.964;7.982;2023-03-13T03:17:44;96223.78;;;9.60;56.64
48800;BME280;34611;47.964;7.982;2023-03-13T03:24:45;96235.00;;;9.61;56.44
48800;BME280;34611;47.964;7.982;2023-03-13T03:31:45;96234.16;;;9.60;56.55
48800;BME280;34611;47.964;7.982;2023-03-13T03:38:46;96213.38;;;9.60;56.72
48800;BME280;34611;47.964;7.982;2023-03-13T03:45:50;96207.38;;;9.60;56.62
48800;BME280;34611;47.964;7.982;2023-03-13T03:52:50;96214.22;;;9.61;56.63
48800;BME280;34611;47.964;7.982;2023-03-13T03:59:51;96224.63;;;9.61;56.53
48800;BME280;34611;47.964;7.982;2023-03-13T04:06:51;96218.56;;;9.60;56.55
48800;BME280;34611;47.964;7.982;2023-03-13T04:13:51;96199.47;;;9.61;56.52
48800;BME280;34611;47.964;7.982;2023-03-13T04:20:58;96183.91;;;9.61;56.66
48800;BME280;34611;47.964;7.982;2023-03-13T04:27:59;96185.69;;;9.61;56.54
48800;BME280;34611;47.964;7.982;2023-03-13T04:35:05;96193.47;;;9.61;56.63
48800;BME280;34611;47.964;7.982;2023-03-13T04:42:28;96177.75;;;9.62;56.49
48800;BME280;34611;47.964;7.982;2023-03-13T04:49:41;96178.72;;;9.61;56.54
48800;BME280;34611;47.964;7.982;2023-03-13T04:56:48;96172.56;;;9.62;56.55
48800;BME280;34611;47.964;7.982;2023-03-13T05:04:01;96180.50;;;9.61;56.82
48800;BME280;34611;47.964;7.982;2023-03-13T05:11:27;96183.78;;;9.63;56.69
48800;BME280;34611;47.964;7.982;2023-03-13T05:18:31;96163.00;;;9.63;56.70
48800;BME280;34611;47.964;7.982;2023-03-13T05:25:53;96157.97;;;9.61;56.61
48800;BME280;34611;47.964;7.982;2023-03-13T05:33:11;96159.56;;;9.62;56.61
48800;BME280;34611;47.964;7.982;2023-03-13T05:40:19;96159.56;;;9.62;56.79
48800;BME280;34611;47.964;7.982;2023-03-13T05:47:54;96159.44;;;9.64;56.71
48800;BME280;34611;47.964;7.982;2023-03-13T05:55:12;96158.63;;;9.63;56.81
48800;BME280;34611;47.964;7.982;2023-03-13T06:02:27;96156.84;;;9.64;56.77
48800;BME280;34611;47.964;7.982;2023-03-13T06:09:29;96156.03;;;9.63;56.71
48800;BME280;34611;47.964;7.982;2023-03-13T06:16:30;96161.91;;;9.65;56.79
48800;BME280;34611;47.964;7.982;2023-03-13T06:23:44;96157.66;;;9.64;56.60
48800;BME280;34611;47.964;7.982;2023-03-13T06:30:45;96145.53;;;9.65;56.75
48800;BME280;34611;47.964;7.982;2023-03-13T06:37:45;96157.66;;;9.64;56.86
48800;BME280;34611;47.964;7.982;2023-03-13T06:44:45;96144.56;;;9.66;56.68
48800;BME280;34611;47.964;7.982;2023-03-13T06:51:45;96160.25;;;9.64;56.73
48800;BME280;34611;47.964;7.982;2023-03-13T06:58:46;96169.69;;;9.65;56.71
48800;BME280;34611;47.964;7.982;2023-03-13T07:05:46;96199.19;;;9.64;56.91
48800;BME280;34611;47.964;7.982;2023-03-13T07:12:47;96208.63;;;9.65;56.75
48800;BME280;34611;47.964;7.982;2023-03-13T07:19:47;96211.22;;;9.65;56.73
48800;BME280;34611;47.964;7.982;2023-03-13T07:26:47;96201.66;;;9.66;56.89
48800;BME280;34611;47.964;7.982;2023-03-13T07:33:47;96197.28;;;9.66;56.79
48800;BME280;34611;47.964;7.982;2023-03-13T07:40:51;96189.66;;;9.65;56.93
48800;BME280;34611;47.964;7.982;2023-03-13T07:47:52;96193.06;;;9.65;56.91
48800;BME280;34611;47.964;7.982;2023-03-13T07:54:53;96173.91;;;9.66;56.83
48800;BME280;34611;47.964;7.982;2023-03-13T08:01:53;96175.69;;;9.66;56.95
48800;BME280;34611;47.964;7.982;2023-03-13T08:08:55;96161.78;;;9.67;56.96
48800;BME280;34611;47.964;7.982;2023-03-13T08:16:03;96145.38;;;9.66;56.92
48800;BME280;34611;47.964;7.982;2023-03-13T08:23:03;96146.22;;;9.67;56.86
48800;BME280;34611;47.964;7.982;2023-03-13T08:30:07;96148.81;;;9.67;56.79
48800;BME280;34611;47.964;7.982;2023-03-13T08:37:07;96140.19;;;9.66;56.99
48800;BME280;34611;47.964;7.982;2023-03-13T08:44:09;96133.22;;;9.67;56.98
48800;BME280;34611;47.964;7.982;2023-03-13T08:51:11;96121.06;;;9.67;56.92
48800;BME280;34611;47.964;7.982;2023-03-13T08:58:12;96096.91;;;9.67;56.93
48800;BME280;34611;47.964;7.982;2023-03-13T09:05:12;96085.53;;;9.68;56.95
48800;BME280;34611;47.964;7.982;2023-03-13T09:12:13;96071.75;;;9.67;56.78
48800;BME280;34611;47.964;7.982;2023-03-13T09:19:13;96075.16;;;9.68;56.90
48800;BME280;34611;47.964;7.982;2023-03-13T09:26:14;96059.59;;;9.68;56.80
48800;BME280;34611;47.964;7.982;2023-03-13T09:33:16;96038.03;;;9.67;56.89
48800;BME280;34611;47.964;7.982;2023-03-13T09:40:17;96047.59;;;9.67;56.90
48800;BME280;34611;47.964;7.982;2023-03-13T09:47:22;96039.63;;;9.68;57.06
48800;BME280;34611;47.964;7.982;2023-03-13T10:01:27;95996.38;;;9.69;57.00
48800;BME280;34611;47.964;7.982;2023-03-13T10:08:29;95960.97;;;9.68;56.97
48800;BME280;34611;47.964;7.982;2023-03-13T10:15:35;95974.75;;;9.68;56.88
48800;BME280;34611;47.964;7.982;2023-03-13T10:22:40;95969.56;;;9.68;56.99
48800;BME280;34611;47.964;7.982;2023-03-13T10:29:41;95947.06;;;9.69;57.08
48800;BME280;34611;47.964;7.982;2023-03-13T10:36:42;95932.28;;;9.69;56.99
48800;BME280;34611;47.964;7.982;2023-03-13T10:43:50;95899.50;;;9.68;56.92
48800;BME280;34611;47.964;7.982;2023-03-13T10:50:52;95889.13;;;9.68;56.85
48800;BME280;34611;47.964;7.982;2023-03-13T10:57:57;95880.41;;;9.69;56.87
48800;BME280;34611;47.964;7.982;2023-03-13T11:04:58;95843.25;;;9.69;56.93
48800;BME280;34611;47.964;7.982;2023-03-13T11:12:03;95833.69;;;9.69;56.84
48800;BME280;34611;47.964;7.982;2023-03-13T11:26:34;95810.34;;;9.69;57.11
48800;BME280;34611;47.964;7.982;2023-03-13T11:33:42;95783.41;;;9.70;56.88
48800;BME280;34611;47.964;7.982;2023-03-13T11:47:57;95763.47;;;9.71;56.86
48800;BME280;34611;47.964;7.982;2023-03-13T11:55:18;95738.47;;;9.70;57.08
48800;BME280;34611;47.964;7.982;2023-03-13T12:02:22;95730.56;;;9.71;56.83
48800;BME280;34611;47.964;7.982;2023-03-13T12:09:30;95710.59;;;9.72;57.02
48800;BME280;34611;47.964;7.982;2023-03-13T12:30:42;95655.28;;;9.71;57.04
48800;BME280;34611;47.964;7.982;2023-03-13T12:37:54;95631.13;;;9.71;57.06
48800;BME280;34611;47.964;7.982;2023-03-13T12:44:57;95608.59;;;9.71;57.10
48800;BME280;34611;47.964;7.982;2023-03-13T12:52:07;95586.19;;;9.70;57.12
48800;BME280;34611;47.964;7.982;2023-03-13T13:06:15;95553.09;;;9.72;56.93
48800;BME280;34611;47.964;7.982;2023-03-13T13:13:17;95521.16;;;9.72;56.93
48800;BME280;34611;47.964;7.982;2023-03-13T13:20:24;95509.97;;;9.71;57.09
48800;BME280;34611;47.964;7.982;2023-03-13T13:41:34;95483.03;;;9.72;56.99
48800;BME280;34611;47.964;7.982;2023-03-13T13:48:36;95466.66;;;9.72;57.11
48800;BME280;34611;47.964;7.982;2023-03-13T14:02:43;95459.69;;;9.72;56.90
48800;BME280;34611;47.964;7.982;2023-03-13T14:09:58;95445.75;;;9.73;57.23
48800;BME280;34611;47.964;7.982;2023-03-13T14:17:00;95440.56;;;9.73;57.20
48800;BME280;34611;47.964;7.982;2023-03-13T14:24:00;95429.38;;;9.73;57.03
48800;BME280;34611;47.964;7.982;2023-03-13T14:31:00;95412.03;;;9.73;57.01
48800;BME280;34611;47.964;7.982;2023-03-13T14:38:01;95405.84;;;9.75;57.05
48800;BME280;34611;47.964;7.982;2023-03-13T14:45:01;95392.06;;;9.74;57.16
48800;BME280;34611;47.964;7.982;2023-03-13T14:59:18;95360.13;;;9.73;57.22
48800;BME280;34611;47.964;7.982;2023-03-13T15:06:19;95328.00;;;9.75;57.08
48800;BME280;34611;47.964;7.982;2023-03-13T15:20:23;95282.44;;;9.80;57.63
48800;BME280;34611;47.964;7.982;2023-03-13T15:27:24;95256.84;;;9.77;57.74
48800;BME280;34611;47.964;7.982;2023-03-13T15:34:24;95237.84;;;9.77;57.64
48800;BME280;34611;47.964;7.982;2023-03-13T15:41:25;95234.44;;;9.76;57.43
48800;BME280;34611;47.964;7.982;2023-03-13T15:48:26;95232.63;;;9.77;57.47
48800;BME280;34611;47.964;7.982;2023-03-13T15:55:27;95217.06;;;9.77;57.46
48800;BME280;34611;47.964;7.982;2023-03-13T16:02:28;95201.50;;;9.77;57.42
48800;BME280;34611;47.964;7.982;2023-03-13T16:09:28;95173.78;;;9.77;57.39
48800;BME280;34611;47.964;7.982;2023-03-13T16:16:29;95160.81;;;9.77;57.43
48800;BME280;34611;47.964;7.982;2023-03-13T16:23:30;95119.47;;;9.76;57.27
48800;BME280;34611;47.964;7.982;2023-03-13T16:30:31;95091.72;;;9.76;57.30
48800;BME280;34611;47.964;7.982;2023-03-13T16:37:31;95104.53;;;9.78;57.28
48800;BME280;34611;47.964;7.982;2023-03-13T16:44:32;95100.16;;;9.78;57.36
48800;BME280;34611;47.964;7.982;2023-03-13T16:51:32;95078.59;;;9.78;57.24
48800;BME280;34611;47.964;7.982;2023-03-13T16:58:32;95062.22;;;9.77;57.42
48800;BME280;34611;47.964;7.982;2023-03-13T17:05:33;95033.66;;;9.77;57.26
48800;BME280;34611;47.964;7.982;2023-03-13T17:12:33;95015.50;;;9.77;57.48
48800;BME280;34611;47.964;7.982;2023-03-13T17:19:34;95011.91;;;9.78;57.43
48800;BME280;34611;47.964;7.982;2023-03-13T17:26:35;94992.16;;;9.77;57.17
48800;BME280;34611;47.964;7.982;2023-03-13T17:33:36;94985.16;;;9.78;57.25
48800;BME280;34611;47.964;7.982;2023-03-13T17:40:36;94983.38;;;9.78;57.25
48800;BME280;34611;47.964;7.982;2023-03-13T17:47:39;94985.16;;;9.78;57.33
48800;BME280;34611;47.964;7.982;2023-03-13T17:54:39;94992.25;;;9.92;57.57
48800;BME280;34611;47.964;7.982;2023-03-13T18:01:39;94996.94;;;9.88;59.13
48800;BME280;34611;47.964;7.982;2023-03-13T18:08:40;94971.50;;;9.84;58.90
48800;BME280;34611;47.964;7.982;2023-03-13T18:15:40;94983.69;;;9.83;58.67
48800;BME280;34611;47.964;7.982;2023-03-13T18:22:40;94955.16;;;9.83;58.19
48800;BME280;34611;47.964;7.982;2023-03-13T18:29:41;94940.53;;;9.82;58.34
48800;BME280;34611;47.964;7.982;2023-03-13T18:36:41;94934.38;;;9.83;58.22
48800;BME280;34611;47.964;7.982;2023-03-13T18:43:42;94908.44;;;9.83;58.14
48800;BME280;34611;47.964;7.982;2023-03-13T18:50:42;94911.84;;;9.84;57.88
48800;BME280;34611;47.964;7.982;2023-03-13T18:57:43;94916.22;;;9.83;58.03
48800;BME280;34611;47.964;7.982;2023-03-13T19:04:43;94920.41;;;9.84;57.78
48800;BME280;34611;47.964;7.982;2023-03-13T19:11:44;95079.72;;;9.83;57.97
48800;BME280;34611;47.964;7.982;2023-03-13T19:18:44;95230.03;;;9.85;57.83
48800;BME280;34611;47.964;7.982;2023-03-13T19:25:45;95304.50;;;9.84;58.07
48800;BME280;34611;47.964;7.982;2023-03-13T19:32:45;95401.34;;;9.85;57.84
48800;BME280;34611;47.964;7.982;2023-03-13T19:39:45;95352.03;;;9.85;57.96
48800;BME280;34611;47.964;7.982;2023-03-13T19:46:46;95377.03;;;9.86;58.18
48800;BME280;34611;47.964;7.982;2023-03-13T19:53:46;95406.53;;;9.85;57.85
48800;BME280;34611;47.964;7.982;2023-03-13T20:00:47;95471.59;;;9.91;57.87
48800;BME280;34611;47.964;7.982;2023-03-13T20:07:47;95492.81;;;9.87;58.45
48800;BME280;34611;47.964;7.982;2023-03-13T20:14:47;95447.09;;;9.86;58.13
48800;BME280;34611;47.964;7.982;2023-03-13T20:21:48;95503.22;;;9.87;58.21
48800;BME280;34611;47.964;7.982;2023-03-13T20:28:48;95477.41;;;9.85;58.07
48800;BME280;34611;47.964;7.982;2023-03-13T20:35:49;95403.94;;;9.85;58.22
48800;BME280;34611;47.964;7.982;2023-03-13T20:42:49;95415.13;;;9.85;58.05
48800;BME280;34611;47.964;7.982;2023-03-13T20:49:49;95408.97;;;9.86;58.09
48800;BME280;34611;47.964;7.982;2023-03-13T20:56:50;95448.84;;;9.85;58.08
48800;BME280;34611;47.964;7.982;2023-03-13T21:03:50;95447.91;;;9.86;58.10
48800;BME280;34611;47.964;7.982;2023-03-13T21:10:50;95361.44;;;9.86;58.11
48800;BME280;34611;47.964;7.982;2023-03-13T21:17:50;95367.44;;;9.86;58.08
48800;BME280;34611;47.964;7.982;2023-03-13T21:24:52;95379.63;;;9.86;58.04
48800;BME280;34611;47.964;7.982;2023-03-13T21:31:53;95332.91;;;9.86;57.93
48800;BME280;34611;47.964;7.982;2023-03-13T21:38:53;95300.91;;;9.85;58.02
48800;BME280;34611;47.964;7.982;2023-03-13T21:45:54;95311.16;;;9.87;58.05
48800;BME280;34611;47.964;7.982;2023-03-13T21:52:55;95319.72;;;9.87;57.81
48800;BME280;34611;47.964;7.982;2023-03-13T21:59:55;95322.50;;;9.86;57.86
48800;BME280;34611;47.964;7.982;2023-03-13T22:06:55;95345.03;;;9.85;58.06
48800;BME280;34611;47.964;7.982;2023-03-13T22:13:56;95362.25;;;9.86;58.00
48800;BME280;34611;47.964;7.982;2023-03-13T22:20:57;95390.00;;;9.86;58.04
48800;BME280;34611;47.964;7.982;2023-03-13T22:27:57;95400.38;;;9.86;57.88
48800;BME280;34611;47.964;7.982;2023-03-13T22:34:57;95419.34;;;9.86;57.88
48800;BME280;34611;47.964;7.982;2023-03-13T22:41:58;95434.91;;;9.86;58.04
48800;BME280;34611;47.964;7.982;2023-03-13T22:48:58;95419.34;;;9.86;58.10
48800;BME280;34611;47.964;7.982;2023-03-13T22:55:58;95421.13;;;9.86;57.90
48800;BME280;34611;47.964;7.982;2023-03-13T23:02:58;95413.34;;;9.86;57.89
48800;BME280;34611;47.964;7.982;2023-03-13T23:09:59;95370.84;;;9.87;57.86
48800;BME280;34611;47.964;7.982;2023-03-13T23:16:59;95256.00;;;9.85;57.90
48800;BME280;34611;47.964;7.982;2023-03-13T23:23:59;95247.25;;;9.86;57.77
48800;BME280;34611;47.964;7.982;2023-03-13T23:31:06;95280.00;;;9.87;58.03
48800;BME280;34611;47.964;7.982;2023-03-13T23:38:08;95299.16;;;9.86;57.88
48800;BME280;34611;47.964;7.982;2023-03-13T23:45:09;95280.81;;;9.87;58.01
48800;BME280;34611;47.964;7.982;2023-03-13T23:52:09;95307.75;;;9.86;57.83
48800;BME280;34611;47.964;7.982;2023-03-13T23:59:09;95290.38;;;9.87;57.88
